sensor_id;sensor_type;location;lat;lon;timestamp;P1;durP1;ratioP1;P2;durP2;ratioP2
8187;SDS011;4135;49.184;9.722;2023-05-19T00:00:34;3.47;;;1.98;;
8187;SDS011;4135;49.184;9.722;2023-05-19T00:03:05;4.53;;;1.70;;
8187;SDS011;4135;49.184;9.722;2023-05-19T00:05:36;5.90;;;1.58;;
8187;SDS011;4135;49.184;9.722;2023-05-19T00:08:15;3.67;;;1.65;;
8187;SDS011;4135;49.184;9.722;2023-05-19T00:10:45;3.13;;;1.45;;
8187;SDS011;4135;49.184;9.722;2023-05-19T00:13:15;2.55;;;1.60;;
8187;SDS011;4135;49.184;9.722;2023-05-19T00:15:44;3.08;;;1.70;;
8187;SDS011;4135;49.184;9.722;2023-05-19T00:18:14;5.88;;;2.05;;
8187;SDS011;4135;49.184;9.722;2023-05-19T00:20:44;3.42;;;1.38;;
8187;SDS011;4135;49.184;9.722;2023-05-19T00:23:14;4.20;;;1.63;;
8187;SDS011;4135;49.184;9.722;2023-05-19T00:25:43;2.75;;;1.50;;
8187;SDS011;4135;49.184;9.722;2023-05-19T00:28:13;3.00;;;2.00;;
8187;SDS011;4135;49.184;9.722;2023-05-19T00:30:43;3.13;;;1.55;;
8187;SDS011;4135;49.184;9.722;2023-05-19T00:33:12;7.30;;;2.58;;
8187;SDS011;4135;49.184;9.722;2023-05-19T00:35:42;2.42;;;1.23;;
8187;SDS011;4135;49.184;9.722;2023-05-19T00:38:11;4.65;;;1.65;;
8187;SDS011;4135;49.184;9.722;2023-05-19T00:40:40;3.20;;;1.38;;
8187;SDS011;4135;49.184;9.722;2023-05-19T00:43:10;3.80;;;1.67;;
8187;SDS011;4135;49.184;9.722;2023-05-19T00:45:40;4.78;;;1.60;;
8187;SDS011;4135;49.184;9.722;2023-05-19T00:48:10;1.85;;;1.42;;
8187;SDS011;4135;49.184;9.722;2023-05-19T00:50:39;4.45;;;1.50;;
8187;SDS011;4135;49.184;9.722;2023-05-19T00:53:09;2.30;;;1.60;;
8187;SDS011;4135;49.184;9.722;2023-05-19T00:55:39;2.60;;;1.40;;
8187;SDS011;4135;49.184;9.722;2023-05-19T00:58:10;4.95;;;1.70;;
8187;SDS011;4135;49.184;9.722;2023-05-19T01:00:40;4.18;;;1.40;;
8187;SDS011;4135;49.184;9.722;2023-05-19T01:03:11;5.38;;;1.77;;
8187;SDS011;4135;49.184;9.722;2023-05-19T01:05:41;2.72;;;1.63;;
8187;SDS011;4135;49.184;9.722;2023-05-19T01:08:12;4.75;;;1.42;;
8187;SDS011;4135;49.184;9.722;2023-05-19T01:10:42;3.85;;;1.90;;
8187;SDS011;4135;49.184;9.722;2023-05-19T01:13:11;2.63;;;1.35;;
8187;SDS011;4135;49.184;9.722;2023-05-19T01:15:55;5.55;;;1.42;;
8187;SDS011;4135;49.184;9.722;2023-05-19T01:24:12;3.67;;;1.55;;
8187;SDS011;4135;49.184;9.722;2023-05-19T01:32:07;2.00;;;1.30;;
8187;SDS011;4135;49.184;9.722;2023-05-19T01:34:41;4.43;;;1.70;;
8187;SDS011;4135;49.184;9.722;2023-05-19T01:37:12;2.53;;;1.20;;
8187;SDS011;4135;49.184;9.722;2023-05-19T01:39:44;3.67;;;1.60;;
8187;SDS011;4135;49.184;9.722;2023-05-19T01:42:14;4.20;;;1.55;;
8187;SDS011;4135;49.184;9.722;2023-05-19T01:44:45;1.90;;;1.05;;
8187;SDS011;4135;49.184;9.722;2023-05-19T01:47:15;3.30;;;1.40;;
8187;SDS011;4135;49.184;9.722;2023-05-19T01:49:44;2.30;;;1.48;;
8187;SDS011;4135;49.184;9.722;2023-05-19T01:52:14;2.45;;;1.38;;
8187;SDS011;4135;49.184;9.722;2023-05-19T01:54:43;3.95;;;1.52;;
8187;SDS011;4135;49.184;9.722;2023-05-19T02:00:02;3.45;;;1.67;;
8187;SDS011;4135;49.184;9.722;2023-05-19T02:03:05;2.70;;;1.00;;
8187;SDS011;4135;49.184;9.722;2023-05-19T02:05:51;1.15;;;1.08;;
8187;SDS011;4135;49.184;9.722;2023-05-19T02:08:40;2.58;;;1.30;;
8187;SDS011;4135;49.184;9.722;2023-05-19T02:11:21;4.60;;;1.40;;
8187;SDS011;4135;49.184;9.722;2023-05-19T02:14:00;2.60;;;1.38;;
8187;SDS011;4135;49.184;9.722;2023-05-19T02:16:34;2.03;;;1.15;;
8187;SDS011;4135;49.184;9.722;2023-05-19T02:19:05;2.28;;;1.27;;
8187;SDS011;4135;49.184;9.722;2023-05-19T02:21:34;1.50;;;1.17;;
8187;SDS011;4135;49.184;9.722;2023-05-19T02:24:04;3.53;;;1.20;;
8187;SDS011;4135;49.184;9.722;2023-05-19T02:26:34;3.75;;;1.42;;
8187;SDS011;4135;49.184;9.722;2023-05-19T02:29:04;1.83;;;1.20;;
8187;SDS011;4135;49.184;9.722;2023-05-19T02:31:33;2.70;;;1.30;;
8187;SDS011;4135;49.184;9.722;2023-05-19T02:34:03;2.28;;;1.23;;
8187;SDS011;4135;49.184;9.722;2023-05-19T02:36:33;1.73;;;1.02;;
8187;SDS011;4135;49.184;9.722;2023-05-19T02:39:03;2.63;;;1.38;;
8187;SDS011;4135;49.184;9.722;2023-05-19T02:41:32;4.63;;;1.75;;
8187;SDS011;4135;49.184;9.722;2023-05-19T02:44:02;3.88;;;1.35;;
8187;SDS011;4135;49.184;9.722;2023-05-19T02:46:32;5.15;;;1.80;;
8187;SDS011;4135;49.184;9.722;2023-05-19T02:49:02;3.03;;;1.33;;
8187;SDS011;4135;49.184;9.722;2023-05-19T02:51:31;3.63;;;1.20;;
8187;SDS011;4135;49.184;9.722;2023-05-19T02:54:01;3.13;;;1.30;;
8187;SDS011;4135;49.184;9.722;2023-05-19T02:56:30;6.63;;;1.45;;
8187;SDS011;4135;49.184;9.722;2023-05-19T02:59:00;4.22;;;1.35;;
8187;SDS011;4135;49.184;9.722;2023-05-19T03:01:29;2.00;;;1.25;;
8187;SDS011;4135;49.184;9.722;2023-05-19T03:04:00;5.07;;;1.67;;
8187;SDS011;4135;49.184;9.722;2023-05-19T03:06:30;4.00;;;1.27;;
8187;SDS011;4135;49.184;9.722;2023-05-19T03:09:00;1.83;;;1.20;;
8187;SDS011;4135;49.184;9.722;2023-05-19T03:11:30;1.67;;;0.98;;
8187;SDS011;4135;49.184;9.722;2023-05-19T03:13:59;2.33;;;1.17;;
8187;SDS011;4135;49.184;9.722;2023-05-19T03:16:29;2.63;;;1.45;;
8187;SDS011;4135;49.184;9.722;2023-05-19T03:18:59;2.42;;;1.33;;
8187;SDS011;4135;49.184;9.722;2023-05-19T03:21:29;4.63;;;1.83;;
8187;SDS011;4135;49.184;9.722;2023-05-19T03:24:00;2.42;;;0.98;;
8187;SDS011;4135;49.184;9.722;2023-05-19T03:26:29;2.70;;;1.27;;
8187;SDS011;4135;49.184;9.722;2023-05-19T03:28:59;3.55;;;1.45;;
8187;SDS011;4135;49.184;9.722;2023-05-19T03:31:28;2.53;;;1.30;;
8187;SDS011;4135;49.184;9.722;2023-05-19T03:33:58;2.72;;;1.08;;
8187;SDS011;4135;49.184;9.722;2023-05-19T03:36:28;3.25;;;1.70;;
8187;SDS011;4135;49.184;9.722;2023-05-19T03:38:59;2.28;;;1.08;;
8187;SDS011;4135;49.184;9.722;2023-05-19T03:41:29;1.25;;;0.88;;
8187;SDS011;4135;49.184;9.722;2023-05-19T03:43:59;2.35;;;1.25;;
8187;SDS011;4135;49.184;9.722;2023-05-19T03:46:29;4.68;;;1.25;;
8187;SDS011;4135;49.184;9.722;2023-05-19T03:48:58;2.58;;;1.10;;
8187;SDS011;4135;49.184;9.722;2023-05-19T03:51:28;1.90;;;1.17;;
8187;SDS011;4135;49.184;9.722;2023-05-19T03:53:58;1.77;;;1.05;;
8187;SDS011;4135;49.184;9.722;2023-05-19T03:56:27;2.63;;;1.23;;
8187;SDS011;4135;49.184;9.722;2023-05-19T03:58:57;3.55;;;1.30;;
8187;SDS011;4135;49.184;9.722;2023-05-19T04:01:27;2.55;;;1.23;;
8187;SDS011;4135;49.184;9.722;2023-05-19T04:03:56;2.67;;;1.05;;
8187;SDS011;4135;49.184;9.722;2023-05-19T04:06:26;2.83;;;1.48;;
8187;SDS011;4135;49.184;9.722;2023-05-19T04:08:56;6.65;;;1.58;;
8187;SDS011;4135;49.184;9.722;2023-05-19T04:11:25;3.35;;;1.33;;
8187;SDS011;4135;49.184;9.722;2023-05-19T04:13:55;2.67;;;1.30;;
8187;SDS011;4135;49.184;9.722;2023-05-19T04:16:24;3.67;;;1.25;;
8187;SDS011;4135;49.184;9.722;2023-05-19T04:18:54;2.28;;;1.20;;
8187;SDS011;4135;49.184;9.722;2023-05-19T04:21:24;3.17;;;1.38;;
8187;SDS011;4135;49.184;9.722;2023-05-19T04:23:54;2.67;;;1.45;;
8187;SDS011;4135;49.184;9.722;2023-05-19T04:26:23;2.25;;;1.20;;
8187;SDS011;4135;49.184;9.722;2023-05-19T04:28:54;1.90;;;1.00;;
8187;SDS011;4135;49.184;9.722;2023-05-19T04:31:24;5.22;;;1.58;;
8187;SDS011;4135;49.184;9.722;2023-05-19T04:33:55;3.22;;;1.35;;
8187;SDS011;4135;49.184;9.722;2023-05-19T04:36:24;1.58;;;1.00;;
8187;SDS011;4135;49.184;9.722;2023-05-19T04:38:54;1.92;;;1.05;;
8187;SDS011;4135;49.184;9.722;2023-05-19T04:41:30;3.78;;;1.60;;
8187;SDS011;4135;49.184;9.722;2023-05-19T04:43:59;2.35;;;1.30;;
8187;SDS011;4135;49.184;9.722;2023-05-19T04:46:29;2.80;;;1.38;;
8187;SDS011;4135;49.184;9.722;2023-05-19T04:48:58;3.15;;;1.70;;
8187;SDS011;4135;49.184;9.722;2023-05-19T04:51:29;2.83;;;1.23;;
8187;SDS011;4135;49.184;9.722;2023-05-19T04:53:59;3.97;;;1.70;;
8187;SDS011;4135;49.184;9.722;2023-05-19T04:56:29;2.75;;;1.60;;
8187;SDS011;4135;49.184;9.722;2023-05-19T04:58:58;2.35;;;0.90;;
8187;SDS011;4135;49.184;9.722;2023-05-19T05:01:28;1.98;;;1.30;;
8187;SDS011;4135;49.184;9.722;2023-05-19T05:03:59;2.70;;;1.13;;
8187;SDS011;4135;49.184;9.722;2023-05-19T05:06:30;2.92;;;0.90;;
8187;SDS011;4135;49.184;9.722;2023-05-19T05:08:59;4.38;;;1.38;;
8187;SDS011;4135;49.184;9.722;2023-05-19T05:11:31;2.90;;;1.42;;
8187;SDS011;4135;49.184;9.722;2023-05-19T05:14:01;4.50;;;1.40;;
8187;SDS011;4135;49.184;9.722;2023-05-19T05:16:31;2.50;;;1.55;;
8187;SDS011;4135;49.184;9.722;2023-05-19T05:19:02;2.85;;;1.45;;
8187;SDS011;4135;49.184;9.722;2023-05-19T05:21:31;3.78;;;1.38;;
8187;SDS011;4135;49.184;9.722;2023-05-19T05:24:01;2.05;;;1.30;;
8187;SDS011;4135;49.184;9.722;2023-05-19T05:26:32;5.57;;;1.20;;
8187;SDS011;4135;49.184;9.722;2023-05-19T05:29:03;3.17;;;1.13;;
8187;SDS011;4135;49.184;9.722;2023-05-19T05:31:32;2.92;;;1.30;;
8187;SDS011;4135;49.184;9.722;2023-05-19T05:34:02;3.65;;;1.52;;
8187;SDS011;4135;49.184;9.722;2023-05-19T05:36:32;2.60;;;1.13;;
8187;SDS011;4135;49.184;9.722;2023-05-19T05:39:02;3.38;;;1.23;;
8187;SDS011;4135;49.184;9.722;2023-05-19T05:41:33;3.05;;;1.25;;
8187;SDS011;4135;49.184;9.722;2023-05-19T05:44:03;2.75;;;1.45;;
8187;SDS011;4135;49.184;9.722;2023-05-19T05:46:33;3.13;;;1.40;;
8187;SDS011;4135;49.184;9.722;2023-05-19T05:49:02;2.50;;;1.25;;
8187;SDS011;4135;49.184;9.722;2023-05-19T05:51:32;2.08;;;1.02;;
8187;SDS011;4135;49.184;9.722;2023-05-19T05:54:02;5.78;;;1.60;;
8187;SDS011;4135;49.184;9.722;2023-05-19T05:56:34;3.10;;;1.52;;
8187;SDS011;4135;49.184;9.722;2023-05-19T05:59:05;1.70;;;1.10;;
8187;SDS011;4135;49.184;9.722;2023-05-19T06:01:35;4.25;;;1.40;;
8187;SDS011;4135;49.184;9.722;2023-05-19T06:04:04;1.45;;;1.30;;
8187;SDS011;4135;49.184;9.722;2023-05-19T06:06:34;5.63;;;1.63;;
8187;SDS011;4135;49.184;9.722;2023-05-19T06:09:05;3.47;;;1.88;;
8187;SDS011;4135;49.184;9.722;2023-05-19T06:11:35;1.77;;;1.20;;
8187;SDS011;4135;49.184;9.722;2023-05-19T06:14:05;3.17;;;1.23;;
8187;SDS011;4135;49.184;9.722;2023-05-19T06:16:34;5.05;;;1.52;;
8187;SDS011;4135;49.184;9.722;2023-05-19T06:19:04;4.50;;;1.20;;
8187;SDS011;4135;49.184;9.722;2023-05-19T06:21:33;3.42;;;1.55;;
8187;SDS011;4135;49.184;9.722;2023-05-19T06:24:03;4.55;;;1.40;;
8187;SDS011;4135;49.184;9.722;2023-05-19T06:26:32;5.80;;;1.73;;
8187;SDS011;4135;49.184;9.722;2023-05-19T06:29:02;4.70;;;2.00;;
8187;SDS011;4135;49.184;9.722;2023-05-19T06:31:32;4.90;;;1.33;;
8187;SDS011;4135;49.184;9.722;2023-05-19T06:34:01;4.25;;;1.50;;
8187;SDS011;4135;49.184;9.722;2023-05-19T06:36:31;2.17;;;1.48;;
8187;SDS011;4135;49.184;9.722;2023-05-19T06:39:03;2.65;;;1.52;;
8187;SDS011;4135;49.184;9.722;2023-05-19T06:41:32;4.15;;;1.50;;
8187;SDS011;4135;49.184;9.722;2023-05-19T06:44:02;3.38;;;1.40;;
8187;SDS011;4135;49.184;9.722;2023-05-19T06:46:32;2.20;;;1.25;;
8187;SDS011;4135;49.184;9.722;2023-05-19T06:49:02;4.32;;;2.25;;
8187;SDS011;4135;49.184;9.722;2023-05-19T06:51:31;3.22;;;1.60;;
8187;SDS011;4135;49.184;9.722;2023-05-19T06:54:01;3.15;;;1.50;;
8187;SDS011;4135;49.184;9.722;2023-05-19T06:56:31;4.35;;;1.90;;
8187;SDS011;4135;49.184;9.722;2023-05-19T06:59:00;2.25;;;1.60;;
8187;SDS011;4135;49.184;9.722;2023-05-19T07:01:30;4.05;;;1.75;;
8187;SDS011;4135;49.184;9.722;2023-05-19T07:03:59;3.17;;;1.70;;
8187;SDS011;4135;49.184;9.722;2023-05-19T07:06:29;3.50;;;1.63;;
8187;SDS011;4135;49.184;9.722;2023-05-19T07:08:59;2.58;;;1.38;;
8187;SDS011;4135;49.184;9.722;2023-05-19T07:11:28;2.22;;;1.10;;
8187;SDS011;4135;49.184;9.722;2023-05-19T07:13:58;2.47;;;1.33;;
8187;SDS011;4135;49.184;9.722;2023-05-19T07:16:27;4.05;;;1.73;;
8187;SDS011;4135;49.184;9.722;2023-05-19T07:18:57;2.83;;;1.40;;
8187;SDS011;4135;49.184;9.722;2023-05-19T07:21:26;1.55;;;1.33;;
8187;SDS011;4135;49.184;9.722;2023-05-19T07:23:56;3.13;;;1.58;;
8187;SDS011;4135;49.184;9.722;2023-05-19T07:26:25;2.38;;;1.38;;
8187;SDS011;4135;49.184;9.722;2023-05-19T07:28:56;3.63;;;1.73;;
8187;SDS011;4135;49.184;9.722;2023-05-19T07:31:25;3.15;;;1.92;;
8187;SDS011;4135;49.184;9.722;2023-05-19T07:33:55;3.20;;;1.50;;
8187;SDS011;4135;49.184;9.722;2023-05-19T07:36:25;5.80;;;1.80;;
8187;SDS011;4135;49.184;9.722;2023-05-19T07:38:55;3.25;;;1.83;;
8187;SDS011;4135;49.184;9.722;2023-05-19T07:41:24;4.82;;;1.95;;
8187;SDS011;4135;49.184;9.722;2023-05-19T07:43:54;2.83;;;1.60;;
8187;SDS011;4135;49.184;9.722;2023-05-19T07:46:23;3.85;;;1.98;;
8187;SDS011;4135;49.184;9.722;2023-05-19T07:48:53;3.22;;;1.88;;
8187;SDS011;4135;49.184;9.722;2023-05-19T07:51:22;3.63;;;1.30;;
8187;SDS011;4135;49.184;9.722;2023-05-19T07:53:52;5.13;;;2.33;;
8187;SDS011;4135;49.184;9.722;2023-05-19T07:56:21;5.18;;;1.30;;
8187;SDS011;4135;49.184;9.722;2023-05-19T07:58:52;5.03;;;1.55;;
8187;SDS011;4135;49.184;9.722;2023-05-19T08:01:22;2.78;;;1.70;;
8187;SDS011;4135;49.184;9.722;2023-05-19T08:03:51;2.75;;;1.10;;
8187;SDS011;4135;49.184;9.722;2023-05-19T08:06:21;2.85;;;1.42;;
8187;SDS011;4135;49.184;9.722;2023-05-19T08:08:50;3.70;;;1.50;;
8187;SDS011;4135;49.184;9.722;2023-05-19T08:11:22;3.55;;;1.48;;
8187;SDS011;4135;49.184;9.722;2023-05-19T08:13:51;4.65;;;2.20;;
8187;SDS011;4135;49.184;9.722;2023-05-19T08:16:21;5.22;;;1.60;;
8187;SDS011;4135;49.184;9.722;2023-05-19T08:18:50;4.28;;;1.85;;
8187;SDS011;4135;49.184;9.722;2023-05-19T08:21:20;4.22;;;1.50;;
8187;SDS011;4135;49.184;9.722;2023-05-19T08:23:50;4.03;;;1.63;;
8187;SDS011;4135;49.184;9.722;2023-05-19T08:26:19;6.13;;;2.13;;
8187;SDS011;4135;49.184;9.722;2023-05-19T08:28:49;3.22;;;1.70;;
8187;SDS011;4135;49.184;9.722;2023-05-19T08:31:19;3.75;;;1.83;;
8187;SDS011;4135;49.184;9.722;2023-05-19T08:33:48;3.30;;;1.38;;
8187;SDS011;4135;49.184;9.722;2023-05-19T08:36:18;4.47;;;1.60;;
8187;SDS011;4135;49.184;9.722;2023-05-19T08:38:47;5.43;;;1.85;;
8187;SDS011;4135;49.184;9.722;2023-05-19T08:41:17;8.95;;;1.67;;
8187;SDS011;4135;49.184;9.722;2023-05-19T08:43:47;5.32;;;1.92;;
8187;SDS011;4135;49.184;9.722;2023-05-19T08:46:17;4.93;;;2.28;;
8187;SDS011;4135;49.184;9.722;2023-05-19T08:48:49;9.32;;;2.03;;
8187;SDS011;4135;49.184;9.722;2023-05-19T08:51:24;8.82;;;2.22;;
8187;SDS011;4135;49.184;9.722;2023-05-19T08:54:03;2.67;;;1.80;;
8187;SDS011;4135;49.184;9.722;2023-05-19T08:56:43;6.13;;;2.10;;
8187;SDS011;4135;49.184;9.722;2023-05-19T08:59:13;6.47;;;2.33;;
8187;SDS011;4135;49.184;9.722;2023-05-19T09:01:43;5.13;;;2.20;;
8187;SDS011;4135;49.184;9.722;2023-05-19T09:04:14;6.43;;;2.20;;
8187;SDS011;4135;49.184;9.722;2023-05-19T09:06:44;2.95;;;1.50;;
8187;SDS011;4135;49.184;9.722;2023-05-19T09:09:14;5.78;;;1.90;;
8187;SDS011;4135;49.184;9.722;2023-05-19T09:11:44;3.65;;;2.00;;
8187;SDS011;4135;49.184;9.722;2023-05-19T09:14:14;5.10;;;2.22;;
8187;SDS011;4135;49.184;9.722;2023-05-19T09:16:44;3.63;;;1.98;;
8187;SDS011;4135;49.184;9.722;2023-05-19T09:19:17;5.93;;;2.00;;
8187;SDS011;4135;49.184;9.722;2023-05-19T09:21:56;4.32;;;1.88;;
8187;SDS011;4135;49.184;9.722;2023-05-19T09:24:31;3.90;;;1.58;;
8187;SDS011;4135;49.184;9.722;2023-05-19T09:27:02;4.00;;;2.10;;
8187;SDS011;4135;49.184;9.722;2023-05-19T09:29:31;7.15;;;2.08;;
8187;SDS011;4135;49.184;9.722;2023-05-19T09:32:01;3.33;;;2.00;;
8187;SDS011;4135;49.184;9.722;2023-05-19T09:34:34;4.25;;;2.25;;
8187;SDS011;4135;49.184;9.722;2023-05-19T09:37:11;4.22;;;2.33;;
8187;SDS011;4135;49.184;9.722;2023-05-19T09:39:41;4.72;;;2.55;;
8187;SDS011;4135;49.184;9.722;2023-05-19T09:42:22;3.05;;;1.92;;
8187;SDS011;4135;49.184;9.722;2023-05-19T09:45:02;3.80;;;2.40;;
8187;SDS011;4135;49.184;9.722;2023-05-19T09:47:41;3.13;;;2.28;;
8187;SDS011;4135;49.184;9.722;2023-05-19T09:50:11;3.78;;;2.25;;
8187;SDS011;4135;49.184;9.722;2023-05-19T09:52:42;2.35;;;2.05;;
8187;SDS011;4135;49.184;9.722;2023-05-19T09:55:12;3.72;;;2.10;;
8187;SDS011;4135;49.184;9.722;2023-05-19T09:57:43;6.55;;;2.28;;
8187;SDS011;4135;49.184;9.722;2023-05-19T10:00:13;5.28;;;2.38;;
8187;SDS011;4135;49.184;9.722;2023-05-19T10:02:43;3.72;;;2.17;;
8187;SDS011;4135;49.184;9.722;2023-05-19T10:05:14;3.08;;;1.98;;
8187;SDS011;4135;49.184;9.722;2023-05-19T10:07:46;3.83;;;2.22;;
8187;SDS011;4135;49.184;9.722;2023-05-19T10:10:21;7.22;;;2.45;;
8187;SDS011;4135;49.184;9.722;2023-05-19T10:12:50;4.90;;;2.10;;
8187;SDS011;4135;49.184;9.722;2023-05-19T10:15:22;4.93;;;2.70;;
8187;SDS011;4135;49.184;9.722;2023-05-19T10:17:52;4.95;;;2.30;;
8187;SDS011;4135;49.184;9.722;2023-05-19T10:20:23;10.23;;;2.50;;
8187;SDS011;4135;49.184;9.722;2023-05-19T10:22:54;5.90;;;2.58;;
8187;SDS011;4135;49.184;9.722;2023-05-19T10:25:23;3.08;;;1.98;;
8187;SDS011;4135;49.184;9.722;2023-05-19T10:27:54;5.82;;;2.10;;
8187;SDS011;4135;49.184;9.722;2023-05-19T10:30:28;4.30;;;2.10;;
8187;SDS011;4135;49.184;9.722;2023-05-19T10:33:11;3.80;;;2.33;;
8187;SDS011;4135;49.184;9.722;2023-05-19T10:38:40;4.75;;;2.47;;
8187;SDS011;4135;49.184;9.722;2023-05-19T10:41:27;4.35;;;2.22;;
8187;SDS011;4135;49.184;9.722;2023-05-19T10:44:18;3.53;;;1.80;;
8187;SDS011;4135;49.184;9.722;2023-05-19T10:46:56;4.38;;;2.15;;
8187;SDS011;4135;49.184;9.722;2023-05-19T10:49:25;4.93;;;2.70;;
8187;SDS011;4135;49.184;9.722;2023-05-19T10:51:55;4.88;;;2.38;;
8187;SDS011;4135;49.184;9.722;2023-05-19T10:54:37;4.30;;;1.95;;
8187;SDS011;4135;49.184;9.722;2023-05-19T10:57:12;5.50;;;2.30;;
8187;SDS011;4135;49.184;9.722;2023-05-19T10:59:43;5.97;;;2.67;;
8187;SDS011;4135;49.184;9.722;2023-05-19T11:05:12;3.30;;;2.20;;
8187;SDS011;4135;49.184;9.722;2023-05-19T11:07:53;5.35;;;2.42;;
8187;SDS011;4135;49.184;9.722;2023-05-19T11:10:32;3.45;;;2.03;;
8187;SDS011;4135;49.184;9.722;2023-05-19T11:13:05;7.53;;;2.80;;
8187;SDS011;4135;49.184;9.722;2023-05-19T11:15:34;5.32;;;2.17;;
8187;SDS011;4135;49.184;9.722;2023-05-19T11:18:07;6.72;;;2.40;;
8187;SDS011;4135;49.184;9.722;2023-05-19T11:20:37;4.28;;;2.28;;
8187;SDS011;4135;49.184;9.722;2023-05-19T11:23:07;5.40;;;1.80;;
8187;SDS011;4135;49.184;9.722;2023-05-19T11:28:14;3.95;;;2.00;;
8187;SDS011;4135;49.184;9.722;2023-05-19T11:30:46;5.75;;;2.10;;
8187;SDS011;4135;49.184;9.722;2023-05-19T11:33:19;4.20;;;2.30;;
8187;SDS011;4135;49.184;9.722;2023-05-19T11:35:49;5.38;;;2.08;;
8187;SDS011;4135;49.184;9.722;2023-05-19T11:38:19;4.93;;;2.20;;
8187;SDS011;4135;49.184;9.722;2023-05-19T11:40:52;3.25;;;1.95;;
8187;SDS011;4135;49.184;9.722;2023-05-19T11:43:25;4.30;;;1.95;;
8187;SDS011;4135;49.184;9.722;2023-05-19T11:45:55;4.65;;;2.28;;
8187;SDS011;4135;49.184;9.722;2023-05-19T11:48:24;3.55;;;2.08;;
8187;SDS011;4135;49.184;9.722;2023-05-19T11:50:54;4.72;;;2.28;;
8187;SDS011;4135;49.184;9.722;2023-05-19T11:53:24;5.40;;;2.47;;
8187;SDS011;4135;49.184;9.722;2023-05-19T11:55:54;4.70;;;1.77;;
8187;SDS011;4135;49.184;9.722;2023-05-19T11:58:24;4.95;;;2.45;;
8187;SDS011;4135;49.184;9.722;2023-05-19T12:00:56;3.10;;;2.22;;
8187;SDS011;4135;49.184;9.722;2023-05-19T12:03:31;4.30;;;2.42;;
8187;SDS011;4135;49.184;9.722;2023-05-19T12:06:01;4.72;;;1.80;;
8187;SDS011;4135;49.184;9.722;2023-05-19T12:08:33;4.22;;;2.10;;
8187;SDS011;4135;49.184;9.722;2023-05-19T12:11:03;2.92;;;2.00;;
8187;SDS011;4135;49.184;9.722;2023-05-19T12:13:33;4.40;;;1.92;;
8187;SDS011;4135;49.184;9.722;2023-05-19T12:16:03;4.75;;;1.88;;
8187;SDS011;4135;49.184;9.722;2023-05-19T12:18:36;3.03;;;2.33;;
8187;SDS011;4135;49.184;9.722;2023-05-19T12:21:06;3.22;;;1.70;;
8187;SDS011;4135;49.184;9.722;2023-05-19T12:23:35;3.72;;;2.03;;
8187;SDS011;4135;49.184;9.722;2023-05-19T12:26:06;5.03;;;2.08;;
8187;SDS011;4135;49.184;9.722;2023-05-19T12:28:36;4.15;;;2.08;;
8187;SDS011;4135;49.184;9.722;2023-05-19T12:31:05;5.22;;;1.80;;
8187;SDS011;4135;49.184;9.722;2023-05-19T12:33:35;5.50;;;2.30;;
8187;SDS011;4135;49.184;9.722;2023-05-19T12:36:05;4.68;;;1.83;;
8187;SDS011;4135;49.184;9.722;2023-05-19T12:38:36;9.07;;;2.67;;
8187;SDS011;4135;49.184;9.722;2023-05-19T12:41:09;7.65;;;1.73;;
8187;SDS011;4135;49.184;9.722;2023-05-19T12:43:42;4.72;;;2.17;;
8187;SDS011;4135;49.184;9.722;2023-05-19T12:46:12;3.67;;;1.67;;
8187;SDS011;4135;49.184;9.722;2023-05-19T12:48:44;9.30;;;2.28;;
8187;SDS011;4135;49.184;9.722;2023-05-19T12:51:15;3.88;;;2.17;;
8187;SDS011;4135;49.184;9.722;2023-05-19T12:53:45;6.35;;;2.22;;
8187;SDS011;4135;49.184;9.722;2023-05-19T12:56:17;2.80;;;1.80;;
8187;SDS011;4135;49.184;9.722;2023-05-19T12:58:47;5.85;;;2.45;;
8187;SDS011;4135;49.184;9.722;2023-05-19T13:01:22;3.28;;;2.03;;
8187;SDS011;4135;49.184;9.722;2023-05-19T13:03:52;5.00;;;2.47;;
8187;SDS011;4135;49.184;9.722;2023-05-19T13:06:21;3.65;;;2.00;;
8187;SDS011;4135;49.184;9.722;2023-05-19T13:08:51;5.13;;;2.00;;
8187;SDS011;4135;49.184;9.722;2023-05-19T13:11:20;3.60;;;2.05;;
8187;SDS011;4135;49.184;9.722;2023-05-19T13:13:50;7.43;;;2.10;;
8187;SDS011;4135;49.184;9.722;2023-05-19T13:16:20;3.50;;;1.80;;
8187;SDS011;4135;49.184;9.722;2023-05-19T13:18:50;4.05;;;2.20;;
8187;SDS011;4135;49.184;9.722;2023-05-19T13:21:19;4.28;;;2.15;;
8187;SDS011;4135;49.184;9.722;2023-05-19T13:23:49;5.25;;;2.30;;
8187;SDS011;4135;49.184;9.722;2023-05-19T13:26:19;2.88;;;1.63;;
8187;SDS011;4135;49.184;9.722;2023-05-19T13:28:49;4.18;;;2.13;;
8187;SDS011;4135;49.184;9.722;2023-05-19T13:31:19;7.35;;;2.40;;
8187;SDS011;4135;49.184;9.722;2023-05-19T13:33:48;6.63;;;2.15;;
8187;SDS011;4135;49.184;9.722;2023-05-19T13:36:17;3.55;;;1.67;;
8187;SDS011;4135;49.184;9.722;2023-05-19T13:38:47;4.40;;;2.17;;
8187;SDS011;4135;49.184;9.722;2023-05-19T13:41:21;3.83;;;2.25;;
8187;SDS011;4135;49.184;9.722;2023-05-19T13:44:00;2.47;;;1.70;;
8187;SDS011;4135;49.184;9.722;2023-05-19T13:46:29;3.30;;;1.50;;
8187;SDS011;4135;49.184;9.722;2023-05-19T13:48:59;6.20;;;2.30;;
8187;SDS011;4135;49.184;9.722;2023-05-19T13:51:28;7.63;;;2.58;;
8187;SDS011;4135;49.184;9.722;2023-05-19T13:53:58;2.83;;;1.90;;
8187;SDS011;4135;49.184;9.722;2023-05-19T13:56:28;3.30;;;2.00;;
8187;SDS011;4135;49.184;9.722;2023-05-19T13:58:59;4.22;;;1.73;;
8187;SDS011;4135;49.184;9.722;2023-05-19T14:01:28;3.63;;;2.10;;
8187;SDS011;4135;49.184;9.722;2023-05-19T14:03:58;2.70;;;1.83;;
8187;SDS011;4135;49.184;9.722;2023-05-19T14:06:27;3.10;;;1.80;;
8187;SDS011;4135;49.184;9.722;2023-05-19T14:08:57;3.22;;;1.80;;
8187;SDS011;4135;49.184;9.722;2023-05-19T14:11:26;3.72;;;2.30;;
8187;SDS011;4135;49.184;9.722;2023-05-19T14:13:56;3.10;;;2.10;;
8187;SDS011;4135;49.184;9.722;2023-05-19T14:16:26;2.30;;;1.70;;
8187;SDS011;4135;49.184;9.722;2023-05-19T14:18:56;2.55;;;1.52;;
8187;SDS011;4135;49.184;9.722;2023-05-19T14:21:26;2.97;;;1.73;;
8187;SDS011;4135;49.184;9.722;2023-05-19T14:23:55;4.90;;;1.95;;
8187;SDS011;4135;49.184;9.722;2023-05-19T14:26:25;3.28;;;2.13;;
8187;SDS011;4135;49.184;9.722;2023-05-19T14:28:55;5.60;;;2.35;;
8187;SDS011;4135;49.184;9.722;2023-05-19T14:31:25;6.38;;;2.15;;
8187;SDS011;4135;49.184;9.722;2023-05-19T14:33:54;3.38;;;1.55;;
8187;SDS011;4135;49.184;9.722;2023-05-19T14:36:24;2.85;;;1.90;;
8187;SDS011;4135;49.184;9.722;2023-05-19T14:38:53;4.03;;;1.77;;
8187;SDS011;4135;49.184;9.722;2023-05-19T14:41:23;3.13;;;2.08;;
8187;SDS011;4135;49.184;9.722;2023-05-19T14:43:52;3.22;;;1.58;;
8187;SDS011;4135;49.184;9.722;2023-05-19T14:46:22;2.83;;;1.92;;
8187;SDS011;4135;49.184;9.722;2023-05-19T14:48:51;2.40;;;1.77;;
8187;SDS011;4135;49.184;9.722;2023-05-19T14:51:21;5.45;;;1.60;;
8187;SDS011;4135;49.184;9.722;2023-05-19T14:53:50;4.57;;;2.15;;
8187;SDS011;4135;49.184;9.722;2023-05-19T14:56:20;2.58;;;1.50;;
8187;SDS011;4135;49.184;9.722;2023-05-19T14:58:50;5.45;;;2.13;;
8187;SDS011;4135;49.184;9.722;2023-05-19T15:01:20;2.80;;;1.70;;
8187;SDS011;4135;49.184;9.722;2023-05-19T15:03:49;3.90;;;1.80;;
8187;SDS011;4135;49.184;9.722;2023-05-19T15:06:19;7.07;;;1.98;;
8187;SDS011;4135;49.184;9.722;2023-05-19T15:08:48;5.82;;;2.20;;
8187;SDS011;4135;49.184;9.722;2023-05-19T15:11:18;2.90;;;2.03;;
8187;SDS011;4135;49.184;9.722;2023-05-19T15:13:47;6.13;;;2.33;;
8187;SDS011;4135;49.184;9.722;2023-05-19T15:16:17;3.05;;;1.60;;
8187;SDS011;4135;49.184;9.722;2023-05-19T15:18:46;2.88;;;1.73;;
8187;SDS011;4135;49.184;9.722;2023-05-19T15:21:16;8.13;;;2.63;;
8187;SDS011;4135;49.184;9.722;2023-05-19T15:23:45;9.95;;;2.00;;
8187;SDS011;4135;49.184;9.722;2023-05-19T15:26:15;7.85;;;2.28;;
8187;SDS011;4135;49.184;9.722;2023-05-19T15:28:45;3.50;;;1.98;;
8187;SDS011;4135;49.184;9.722;2023-05-19T15:31:14;3.95;;;2.00;;
8187;SDS011;4135;49.184;9.722;2023-05-19T15:33:44;4.10;;;1.88;;
8187;SDS011;4135;49.184;9.722;2023-05-19T15:36:13;6.28;;;2.25;;
8187;SDS011;4135;49.184;9.722;2023-05-19T15:38:44;4.68;;;1.73;;
8187;SDS011;4135;49.184;9.722;2023-05-19T15:41:13;3.20;;;2.10;;
8187;SDS011;4135;49.184;9.722;2023-05-19T15:43:43;4.78;;;2.08;;
8187;SDS011;4135;49.184;9.722;2023-05-19T15:46:14;5.43;;;2.30;;
8187;SDS011;4135;49.184;9.722;2023-05-19T15:48:43;5.10;;;1.83;;
8187;SDS011;4135;49.184;9.722;2023-05-19T15:51:13;5.85;;;1.77;;
8187;SDS011;4135;49.184;9.722;2023-05-19T15:53:43;2.95;;;1.83;;
8187;SDS011;4135;49.184;9.722;2023-05-19T15:56:12;3.25;;;2.20;;
8187;SDS011;4135;49.184;9.722;2023-05-19T15:58:42;11.13;;;2.10;;